createdAt,value
2023-01-29T00:03:53.408Z,25.45
2023-01-29T00:08:56.720Z,28.23
2023-01-29T00:13:59.864Z,29.02
2023-01-29T00:19:04.715Z,30.02
2023-01-29T00:24:08.193Z,27.83
2023-01-29T00:29:11.299Z,27.23
2023-01-29T00:34:15.763Z,24.90
2023-01-29T00:39:31.352Z,27.38
2023-01-29T00:44:54.262Z,31.60
2023-01-29T00:49:58.858Z,29.65
2023-01-29T00:55:02.019Z,29.38
2023-01-29T01:00:05.704Z,31.52
2023-01-29T01:05:18.192Z,38.40
2023-01-29T01:10:23.233Z,30.98
2023-01-29T01:15:27.419Z,31.20
2023-01-29T01:20:34.139Z,33.83
2023-01-29T01:25:37.797Z,33.20
2023-01-29T01:30:40.887Z,32.13
2023-01-29T01:35:45.411Z,35.15
2023-01-29T01:40:48.533Z,36.08
2023-01-29T01:45:51.876Z,34.45
2023-01-29T01:51:00.710Z,33.55
2023-01-29T01:56:06.099Z,32.58
2023-01-29T02:01:10.590Z,35.22
2023-01-29T02:06:32.683Z,33.50
2023-01-29T02:11:36.457Z,35.08
2023-01-29T02:16:39.862Z,34.85
2023-01-29T02:21:51.848Z,33.65
2023-01-29T02:26:59.189Z,33.03
2023-01-29T02:32:16.995Z,32.67
2023-01-29T02:37:23.139Z,30.52
2023-01-29T02:42:28.289Z,36.17
2023-01-29T02:47:36.359Z,36.65
2023-01-29T02:52:44.690Z,33.03
2023-01-29T02:57:49.748Z,33.35
2023-01-29T03:02:57.048Z,33.75
2023-01-29T03:08:03.082Z,35.58
2023-01-29T03:13:13.857Z,34.97
2023-01-29T03:18:20.048Z,31.73
2023-01-29T03:23:46.694Z,37.35
2023-01-29T03:29:08.724Z,37.08
2023-01-29T03:34:18.254Z,34.05
2023-01-29T03:39:21.442Z,36.80
2023-01-29T03:44:31.587Z,34.88
2023-01-29T03:49:40.247Z,32.65
2023-01-29T03:54:50.257Z,39.08
2023-01-29T03:59:56.739Z,37.97
2023-01-29T04:05:22.225Z,34.95
2023-01-29T04:10:45.237Z,38.97
2023-01-29T04:15:50.043Z,38.97
2023-01-29T04:20:57.685Z,39.40
2023-01-29T04:26:08.131Z,37.65
2023-01-29T04:31:12.639Z,37.45
2023-01-29T04:36:24.118Z,35.13
2023-01-29T04:41:31.124Z,43.90
2023-01-29T04:46:37.101Z,37.45
2023-01-29T04:51:45.262Z,37.90
2023-01-29T04:56:52.880Z,35.38
2023-01-29T05:01:56.680Z,35.35
2023-01-29T05:07:02.296Z,43.72
2023-01-29T05:12:06.632Z,41.20
2023-01-29T05:17:15.015Z,41.80
2023-01-29T05:22:22.733Z,42.75
2023-01-29T05:27:47.602Z,39.88
2023-01-29T05:32:50.715Z,36.85
2023-01-29T05:37:55.181Z,45.20
2023-01-29T05:42:58.283Z,40.28
2023-01-29T05:48:01.665Z,44.10
2023-01-29T05:53:06.432Z,41.38
2023-01-29T05:58:09.616Z,42.70
2023-01-29T06:03:12.925Z,43.53
2023-01-29T06:08:17.479Z,44.03
2023-01-29T06:13:22.724Z,44.08
2023-01-29T06:18:26.737Z,40.30
2023-01-29T06:23:31.738Z,43.55
2023-01-29T06:28:35.145Z,42.88
2023-01-29T06:33:38.275Z,43.97
2023-01-29T06:38:42.768Z,42.65
2023-01-29T06:43:46.384Z,45.75
2023-01-29T06:48:49.573Z,41.40
2023-01-29T06:53:56.120Z,40.72
2023-01-29T06:58:59.195Z,40.08
2023-01-29T07:04:02.939Z,45.03
2023-01-29T07:09:07.579Z,40.13
2023-01-29T07:14:10.832Z,44.80
2023-01-29T07:19:14.089Z,43.40
2023-01-29T07:24:18.881Z,42.88
2023-01-29T07:29:22.013Z,43.95
2023-01-29T07:34:25.152Z,48.00
2023-01-29T07:39:29.657Z,43.63
2023-01-29T07:44:32.725Z,44.95
2023-01-29T07:49:35.849Z,39.17
2023-01-29T07:54:40.287Z,46.30
2023-01-29T07:59:43.532Z,46.60
2023-01-29T08:04:46.899Z,43.13
2023-01-29T08:09:51.475Z,43.38
2023-01-29T08:14:55.426Z,39.13
2023-01-29T08:19:58.867Z,42.35
2023-01-29T08:25:21.028Z,44.78
2023-01-29T08:30:24.745Z,41.50
2023-01-29T08:35:28.089Z,44.30
2023-01-29T08:40:33.846Z,45.22
2023-01-29T08:45:37.935Z,40.15
2023-01-29T08:50:41.400Z,37.60
2023-01-29T08:55:47.381Z,41.88
2023-01-29T09:00:51.249Z,40.58
2023-01-29T09:05:54.520Z,39.25
2023-01-29T09:11:01.210Z,37.67
2023-01-29T09:16:05.497Z,36.97
2023-01-29T09:21:08.894Z,37.00
2023-01-29T09:26:13.542Z,35.50
2023-01-29T09:31:16.963Z,37.70
2023-01-29T09:36:20.212Z,40.25
2023-01-29T09:41:32.865Z,39.55
2023-01-29T09:46:39.014Z,39.60
2023-01-29T09:51:43.769Z,37.33
2023-01-29T09:56:48.825Z,36.83
2023-01-29T10:01:56.967Z,34.95
2023-01-29T10:07:05.176Z,36.00
2023-01-29T10:12:15.095Z,36.00
2023-01-29T10:17:27.104Z,36.88
2023-01-29T10:22:43.907Z,33.17
2023-01-29T10:27:50.093Z,34.78
2023-01-29T10:32:54.040Z,31.33
2023-01-29T10:38:00.164Z,34.10
2023-01-29T10:43:06.251Z,34.33
2023-01-29T10:48:18.482Z,37.45
2023-01-29T10:53:37.151Z,39.53
2023-01-29T10:58:46.803Z,33.65
2023-01-29T11:03:56.209Z,31.05
2023-01-29T11:09:03.947Z,33.70
2023-01-29T11:14:11.601Z,29.38
2023-01-29T11:19:15.016Z,31.95
2023-01-29T11:24:18.896Z,32.88
2023-01-29T11:29:35.230Z,31.05
2023-01-29T11:34:57.133Z,30.33
2023-01-29T11:40:00.379Z,33.35
2023-01-29T11:45:05.395Z,32.85
2023-01-29T11:50:21.539Z,28.13
2023-01-29T11:55:25.959Z,28.45
2023-01-29T12:00:32.338Z,32.13
2023-01-29T12:05:35.665Z,33.10
2023-01-29T12:10:40.090Z,32.38
2023-01-29T12:15:44.967Z,34.80
2023-01-29T12:20:51.900Z,34.38
2023-01-29T12:26:01.208Z,37.50
2023-01-29T12:31:13.111Z,35.50
2023-01-29T12:36:20.564Z,35.92
2023-01-29T12:41:31.245Z,35.75
2023-01-29T12:46:40.361Z,34.95
2023-01-29T12:51:49.169Z,33.55
2023-01-29T12:56:54.451Z,41.60
2023-01-29T13:02:01.106Z,33.97
2023-01-29T13:07:11.859Z,37.20
2023-01-29T13:17:22.679Z,34.92
2023-01-29T13:22:27.049Z,39.80
2023-01-29T13:27:31.527Z,37.10
2023-01-29T13:32:36.916Z,38.97
2023-01-29T13:37:42.456Z,42.30
2023-01-29T13:42:47.714Z,41.25
2023-01-29T13:47:52.977Z,42.55
2023-01-29T13:52:57.868Z,44.13
2023-01-29T13:58:01.644Z,42.35
2023-01-29T14:03:23.626Z,48.88
2023-01-29T14:08:43.041Z,44.25
2023-01-29T14:13:47.117Z,43.80
2023-01-29T14:18:59.310Z,43.75
2023-01-29T14:24:12.804Z,48.70
2023-01-29T14:29:29.059Z,45.80
2023-01-29T14:34:42.876Z,45.38
2023-01-29T14:39:50.233Z,44.10
2023-01-29T14:45:02.227Z,42.00
2023-01-29T14:50:27.417Z,39.45
2023-01-29T14:55:36.739Z,40.97
2023-01-29T15:00:43.449Z,47.42
2023-01-29T15:05:47.235Z,43.13
2023-01-29T15:11:14.058Z,43.67
2023-01-29T15:16:18.387Z,47.65
2023-01-29T15:21:21.899Z,45.10
2023-01-29T15:26:27.241Z,46.25
2023-01-29T15:31:30.743Z,41.75
2023-01-29T15:36:34.515Z,49.47
2023-01-29T15:41:39.572Z,44.90
2023-01-29T15:46:44.279Z,45.00
2023-01-29T15:51:48.797Z,45.67
2023-01-29T15:56:54.595Z,43.72
2023-01-29T16:01:58.037Z,49.70
2023-01-29T16:07:01.935Z,46.55
2023-01-29T16:12:07.078Z,49.17
2023-01-29T16:17:23.989Z,43.13
2023-01-29T16:22:28.276Z,47.80
2023-01-29T16:27:34.142Z,45.92
2023-01-29T16:32:37.323Z,48.50
2023-01-29T16:37:40.739Z,42.80
2023-01-29T16:42:46.556Z,41.47
2023-01-29T16:48:00.401Z,44.65
2023-01-29T16:53:05.735Z,44.97
2023-01-29T16:58:14.503Z,44.22
2023-01-29T17:03:19.284Z,48.00
2023-01-29T17:08:24.852Z,43.20
2023-01-29T17:13:31.272Z,41.58
2023-01-29T17:18:34.881Z,43.75
2023-01-29T17:23:38.306Z,40.33
2023-01-29T17:28:43.161Z,44.83
2023-01-29T17:33:46.804Z,41.85
2023-01-29T17:38:50.241Z,42.33
2023-01-29T17:43:55.046Z,41.00
2023-01-29T17:48:58.329Z,42.97
2023-01-29T17:54:01.605Z,42.67
2023-01-29T17:59:10.187Z,43.42
2023-01-29T18:04:13.751Z,41.83
2023-01-29T18:09:18.843Z,40.00
2023-01-29T18:14:23.726Z,39.10
2023-01-29T18:19:28.396Z,40.13
2023-01-29T18:24:31.607Z,35.05
2023-01-29T18:29:36.344Z,40.13
2023-01-29T18:34:41.464Z,39.60
2023-01-29T18:39:45.088Z,36.78
2023-01-29T18:44:50.052Z,39.38
2023-01-29T18:49:53.387Z,37.78
2023-01-29T18:54:56.672Z,36.88
2023-01-29T19:00:01.385Z,41.42
2023-01-29T19:05:04.852Z,40.88
2023-01-29T19:10:12.679Z,44.63
2023-01-29T19:15:20.644Z,42.47
2023-01-29T19:20:23.893Z,41.30
2023-01-29T19:25:27.468Z,36.60
2023-01-29T19:30:32.156Z,42.33
2023-01-29T19:35:35.377Z,40.15
2023-01-29T19:40:39.392Z,45.83
2023-01-29T19:45:49.798Z,38.83
2023-01-29T19:56:00.291Z,42.25
2023-01-29T20:01:05.895Z,40.55
2023-01-29T20:06:09.971Z,39.80
2023-01-29T20:11:16.848Z,40.97
2023-01-29T20:16:26.943Z,42.78
2023-01-29T20:21:34.214Z,44.40
2023-01-29T20:26:39.091Z,39.55
2023-01-29T20:31:43.917Z,44.83
2023-01-29T20:36:47.330Z,46.90
2023-01-29T20:41:50.790Z,41.97
2023-01-29T20:46:56.313Z,46.15
2023-01-29T20:51:59.776Z,43.90
2023-01-29T20:57:03.337Z,45.75
2023-01-29T21:02:08.180Z,42.28
2023-01-29T21:07:11.620Z,49.45
2023-01-29T21:12:14.986Z,47.10
2023-01-29T21:17:19.808Z,45.22
2023-01-29T21:22:24.351Z,46.08
2023-01-29T21:27:27.561Z,50.00
2023-01-29T21:32:32.851Z,49.03
2023-01-29T21:37:38.138Z,50.95
2023-01-29T21:42:59.201Z,50.30
2023-01-29T21:53:06.945Z,59.28
2023-01-29T21:58:10.249Z,55.90
2023-01-29T22:03:13.468Z,52.00
2023-01-29T22:08:19.495Z,50.10
2023-01-29T22:13:22.999Z,60.10
2023-01-29T22:18:26.251Z,49.53
2023-01-29T22:23:31.015Z,52.55
2023-01-29T22:28:34.457Z,60.03
2023-01-29T22:33:38.138Z,59.67
2023-01-29T22:38:44.465Z,53.58
2023-01-29T22:43:47.547Z,52.05
2023-01-29T22:48:50.618Z,53.65
2023-01-29T22:53:56.022Z,57.13
2023-01-29T22:59:00.837Z,50.80
2023-01-29T23:04:03.931Z,52.13
2023-01-29T23:09:08.512Z,51.50
2023-01-29T23:14:11.605Z,55.25
2023-01-29T23:19:14.839Z,55.92
2023-01-29T23:24:19.294Z,55.65
2023-01-29T23:29:22.592Z,55.72
2023-01-29T23:34:25.675Z,57.60
2023-01-29T23:39:30.169Z,51.10
2023-01-29T23:44:33.328Z,53.42
2023-01-29T23:49:36.436Z,55.10
2023-01-29T23:54:41.079Z,59.55
2023-01-29T23:59:44.225Z,54.25
